Terminal Aerodrome Forecast
Issued by NWS

Home | Current Version | Previous Version | Graphics & Text | Print | Product List | Glossary On
Versions: 1 2 3 4 5 6 7 8 9 10 11 12 13 14
332
FTUS43 KOAX 092351
TAFCDR
TAF
KCDR 092351Z 1000/1024 05007KT P6SM BKN015
     FM100500 08004KT 2SM -SN OVC015
     FM100900 11006KT P6SM OVC015=

USA.gov is the U.S. government's official web portal to all federal, state and local government web resources and services.